createdAt,value
2019-06-27T00:01:16.867Z,76.64
2019-06-27T00:03:46.183Z,76.84
2019-06-27T00:06:15.199Z,76.93
2019-06-27T00:08:43.999Z,77.04
2019-06-27T00:11:15.745Z,77.02
2019-06-27T00:13:45.299Z,77.00
2019-06-27T00:16:14.308Z,77.23
2019-06-27T00:18:43.896Z,77.30
2019-06-27T00:21:12.475Z,77.07
2019-06-27T00:23:41.166Z,77.34
2019-06-27T00:26:10.852Z,77.44
2019-06-27T00:28:39.567Z,77.44
2019-06-27T00:31:08.507Z,77.44
2019-06-27T00:33:39.195Z,77.44
2019-06-27T00:36:08.713Z,77.48
2019-06-27T00:38:37.697Z,77.53
2019-06-27T00:41:06.671Z,77.55
2019-06-27T00:43:35.577Z,77.54
2019-06-27T00:46:05.133Z,77.73
2019-06-27T00:48:34.799Z,77.75
2019-06-27T00:51:03.737Z,77.60
2019-06-27T00:53:33.357Z,77.93
2019-06-27T00:56:02.689Z,77.70
2019-06-27T00:58:31.636Z,77.55
2019-06-27T01:01:00.235Z,77.88
2019-06-27T01:03:30.590Z,77.57
2019-06-27T01:05:59.220Z,77.39
2019-06-27T01:08:28.170Z,77.61
2019-06-27T01:10:57.753Z,77.83
2019-06-27T01:13:26.771Z,77.70
2019-06-27T01:15:55.820Z,77.32
2019-06-27T01:18:25.514Z,77.14
2019-06-27T01:20:56.157Z,77.02
2019-06-27T01:23:25.781Z,76.95
2019-06-27T01:25:55.851Z,76.63
2019-06-27T01:28:24.725Z,76.73
2019-06-27T01:30:53.841Z,77.02
2019-06-27T01:33:22.853Z,77.12
2019-06-27T01:35:51.871Z,77.24
2019-06-27T01:38:21.371Z,77.29
2019-06-27T01:40:50.292Z,77.56
2019-06-27T01:43:20.255Z,77.65
2019-06-27T01:45:51.515Z,77.47
2019-06-27T01:48:21.364Z,77.61
2019-06-27T01:50:50.324Z,77.71
2019-06-27T01:53:21.559Z,77.87
2019-06-27T01:55:51.179Z,78.02
2019-06-27T01:58:20.230Z,77.89
2019-06-27T02:00:50.428Z,77.86
2019-06-27T02:03:20.803Z,77.96
2019-06-27T02:05:49.445Z,77.72
2019-06-27T02:08:19.017Z,77.81
2019-06-27T02:10:49.172Z,78.09
2019-06-27T02:13:19.392Z,78.00
2019-06-27T02:15:48.456Z,78.07
2019-06-27T02:18:17.110Z,78.27
2019-06-27T02:20:47.361Z,78.19
2019-06-27T02:23:16.631Z,78.01
2019-06-27T02:25:45.542Z,78.27
2019-06-27T02:28:14.499Z,78.00
2019-06-27T02:30:45.076Z,77.63
2019-06-27T02:33:14.740Z,77.61
2019-06-27T02:35:44.166Z,77.22
2019-06-27T02:38:13.950Z,77.23
2019-06-27T02:40:42.610Z,77.66
2019-06-27T02:43:14.049Z,77.24
2019-06-27T02:45:43.483Z,77.34
2019-06-27T02:48:13.013Z,76.97
2019-06-27T02:50:42.103Z,77.01
2019-06-27T02:53:10.952Z,76.81
2019-06-27T02:55:39.997Z,76.78
2019-06-27T02:58:28.926Z,76.82
2019-06-27T03:00:39.761Z,76.57
2019-06-27T03:03:09.601Z,76.90
2019-06-27T03:05:40.121Z,76.81
2019-06-27T03:08:09.152Z,76.67
2019-06-27T03:10:38.216Z,76.95
2019-06-27T03:13:07.835Z,77.66
2019-06-27T03:15:37.127Z,77.36
2019-06-27T03:18:06.180Z,77.49
2019-06-27T03:20:37.437Z,76.94
2019-06-27T03:23:06.953Z,76.32
2019-06-27T03:25:38.055Z,76.49
2019-06-27T03:28:06.699Z,76.32
2019-06-27T03:30:35.443Z,76.58
2019-06-27T03:33:04.141Z,76.70
2019-06-27T03:35:32.784Z,76.60
2019-06-27T03:38:01.661Z,76.95
2019-06-27T03:40:30.298Z,77.03
2019-06-27T03:42:58.981Z,76.38
2019-06-27T03:45:27.693Z,76.39
2019-06-27T03:47:56.331Z,75.52
2019-06-27T03:50:25.006Z,75.92
2019-06-27T03:52:54.431Z,75.19
2019-06-27T03:55:23.002Z,74.33
2019-06-27T03:57:51.629Z,74.22
2019-06-27T04:00:23.202Z,74.07
2019-06-27T04:02:51.827Z,73.70
2019-06-27T04:05:20.502Z,73.70
2019-06-27T04:07:49.139Z,73.47
2019-06-27T04:10:18.012Z,73.83
2019-06-27T04:12:46.771Z,74.00
2019-06-27T04:15:15.408Z,74.41
2019-06-27T04:17:44.053Z,75.01
2019-06-27T04:20:12.893Z,75.63
2019-06-27T04:22:41.530Z,76.27
2019-06-27T04:25:11.215Z,76.82
2019-06-27T04:27:39.946Z,77.35
2019-06-27T04:30:09.103Z,77.42
2019-06-27T04:32:39.277Z,76.73
2019-06-27T04:35:08.225Z,76.43
2019-06-27T04:37:37.684Z,76.28
2019-06-27T04:40:06.732Z,76.12
2019-06-27T04:42:35.388Z,76.11
2019-06-27T04:45:05.580Z,76.08
2019-06-27T04:47:34.203Z,75.94
2019-06-27T04:50:02.852Z,76.04
2019-06-27T04:52:32.853Z,75.38
2019-06-27T04:55:03.520Z,75.35
2019-06-27T04:57:31.799Z,74.65
2019-06-27T05:00:00.377Z,74.51
2019-06-27T05:02:30.662Z,74.41
2019-06-27T05:04:59.439Z,74.12
2019-06-27T05:07:28.088Z,74.03
2019-06-27T05:09:56.655Z,73.93
2019-06-27T05:12:26.887Z,74.11
2019-06-27T05:14:55.523Z,74.35
2019-06-27T05:17:24.161Z,74.06
2019-06-27T05:19:52.901Z,73.65
2019-06-27T05:22:21.471Z,73.10
2019-06-27T05:24:50.333Z,72.92
2019-06-27T05:27:19.075Z,72.11
2019-06-27T05:29:47.719Z,71.84
2019-06-27T05:32:17.121Z,71.52
2019-06-27T05:34:45.756Z,70.90
2019-06-27T05:37:14.394Z,70.12
2019-06-27T05:39:42.968Z,69.56
2019-06-27T05:42:11.584Z,69.04
2019-06-27T05:44:41.163Z,68.81
2019-06-27T05:47:09.797Z,67.32
2019-06-27T05:49:38.361Z,66.91
2019-06-27T05:52:07.394Z,66.47
2019-06-27T05:54:35.942Z,65.95
2019-06-27T05:57:04.594Z,65.85
2019-06-27T05:59:33.465Z,65.04
2019-06-27T06:02:02.177Z,64.81
2019-06-27T06:04:30.871Z,63.05
2019-06-27T06:06:59.516Z,62.20
2019-06-27T06:09:28.143Z,60.87
2019-06-27T06:11:56.823Z,60.72
2019-06-27T06:14:25.456Z,60.76
2019-06-27T06:16:54.019Z,60.46
2019-06-27T06:19:22.662Z,60.59
2019-06-27T06:21:51.306Z,60.26
2019-06-27T06:24:20.541Z,59.98
2019-06-27T06:26:49.181Z,60.28
2019-06-27T06:29:17.815Z,60.39
2019-06-27T06:31:49.207Z,58.17
2019-06-27T06:34:16.815Z,58.16
2019-06-27T06:36:45.446Z,57.98
2019-06-27T06:39:14.901Z,58.27
2019-06-27T06:41:43.529Z,59.41
2019-06-27T06:44:12.088Z,57.58
2019-06-27T06:46:40.785Z,55.96
2019-06-27T06:49:09.424Z,55.86
2019-06-27T06:51:38.058Z,56.07
2019-06-27T06:54:08.531Z,55.17
2019-06-27T06:56:37.162Z,53.23
2019-06-27T06:59:05.834Z,54.60
2019-06-27T07:01:34.457Z,53.23
2019-06-27T07:04:03.096Z,52.87
2019-06-27T07:06:31.787Z,53.69
2019-06-27T07:09:00.413Z,53.17
2019-06-27T07:11:29.053Z,52.63
2019-06-27T07:13:57.753Z,50.30
2019-06-27T07:16:26.438Z,49.93
2019-06-27T07:18:55.080Z,47.25
2019-06-27T07:21:23.652Z,47.39
2019-06-27T07:23:52.305Z,46.36
2019-06-27T07:26:22.405Z,45.81
2019-06-27T07:28:51.421Z,45.41
2019-06-27T07:31:20.082Z,42.33
2019-06-27T07:33:49.661Z,40.68
2019-06-27T07:36:18.305Z,41.39
2019-06-27T07:38:47.452Z,41.89
2019-06-27T07:41:16.161Z,42.09
2019-06-27T07:43:44.791Z,38.66
2019-06-27T07:46:24.442Z,34.23
2019-06-27T07:48:44.344Z,33.21
2019-06-27T07:51:12.978Z,34.03
2019-06-27T07:53:41.629Z,32.65
2019-06-27T07:56:10.265Z,32.33
2019-06-27T07:58:39.297Z,32.04
2019-06-27T08:01:08.037Z,32.11
2019-06-27T08:03:36.542Z,28.49
2019-06-27T08:06:05.378Z,27.52
2019-06-27T08:08:33.904Z,24.53
2019-06-27T08:11:02.537Z,22.08
2019-06-27T08:13:31.642Z,20.72
2019-06-27T08:16:00.265Z,17.71
2019-06-27T08:18:28.948Z,14.91
2019-06-27T08:20:57.587Z,14.38
2019-06-27T08:23:40.540Z,13.26
2019-06-27T08:25:56.710Z,12.08
2019-06-27T08:28:25.336Z,13.05
2019-06-27T08:30:53.897Z,13.37
2019-06-27T08:33:22.598Z,10.39
2019-06-27T08:35:51.230Z,10.54
2019-06-27T08:38:19.877Z,10.54
2019-06-27T08:40:48.421Z,9.33
2019-06-27T08:43:16.979Z,8.59
2019-06-27T08:45:45.658Z,8.99
2019-06-27T08:48:14.281Z,8.39
2019-06-27T08:50:42.832Z,6.70
2019-06-27T08:53:16.046Z,6.29
2019-06-27T08:55:44.686Z,5.71
2019-06-27T08:58:13.311Z,4.79
2019-06-27T09:00:44.931Z,6.05
2019-06-27T09:03:12.264Z,5.33
2019-06-27T09:05:40.907Z,5.64
2019-06-27T09:08:09.578Z,4.68
2019-06-27T09:10:38.205Z,5.09
2019-06-27T09:13:06.902Z,5.20
2019-06-27T09:15:35.560Z,5.04
2019-06-27T09:18:04.291Z,4.85
2019-06-27T09:20:32.937Z,6.17
2019-06-27T09:23:01.511Z,6.57
2019-06-27T09:25:30.874Z,5.67
2019-06-27T09:27:59.496Z,5.60
2019-06-27T09:30:28.184Z,5.60
2019-06-27T09:32:57.657Z,5.18
2019-06-27T09:35:26.332Z,5.34
2019-06-27T09:37:55.027Z,4.90
2019-06-27T09:40:24.006Z,5.04
2019-06-27T09:42:54.097Z,5.19
2019-06-27T09:45:23.223Z,5.00
2019-06-27T09:47:52.829Z,4.66
2019-06-27T09:50:22.362Z,4.59
2019-06-27T09:52:50.981Z,5.35
2019-06-27T09:55:20.566Z,4.08
2019-06-27T09:57:49.352Z,4.04
2019-06-27T10:00:19.685Z,5.06
2019-06-27T10:02:48.336Z,4.42
2019-06-27T10:05:17.211Z,3.86
2019-06-27T10:07:45.889Z,4.17
2019-06-27T10:10:16.160Z,4.31
2019-06-27T10:12:44.819Z,3.01
2019-06-27T10:15:13.968Z,3.47
2019-06-27T10:17:42.584Z,1.85
2019-06-27T10:20:11.299Z,3.21
2019-06-27T10:22:39.969Z,2.29
2019-06-27T10:25:09.665Z,1.97
2019-06-27T10:27:38.302Z,2.61
2019-06-27T10:30:08.240Z,2.35
2019-06-27T10:32:36.874Z,2.42
2019-06-27T10:35:10.172Z,3.62
2019-06-27T10:37:38.808Z,4.02
2019-06-27T10:40:08.439Z,4.35
2019-06-27T10:42:37.011Z,5.18
2019-06-27T10:45:07.611Z,5.25
2019-06-27T10:47:36.260Z,5.86
2019-06-27T10:50:05.982Z,5.37
2019-06-27T10:52:34.556Z,5.95
2019-06-27T10:55:03.950Z,6.88
2019-06-27T10:57:32.566Z,7.93
2019-06-27T11:00:01.202Z,10.49
2019-06-27T11:02:29.841Z,11.20
2019-06-27T11:04:58.480Z,13.12
2019-06-27T11:07:27.888Z,14.37
2019-06-27T11:09:56.449Z,16.11
2019-06-27T11:12:25.012Z,17.82
2019-06-27T11:14:58.986Z,19.03
2019-06-27T11:17:24.536Z,20.09
2019-06-27T11:19:53.121Z,19.88
2019-06-27T11:22:21.735Z,21.23
2019-06-27T11:24:50.349Z,21.71
2019-06-27T11:27:19.031Z,22.84
2019-06-27T11:29:47.635Z,22.54
2019-06-27T11:32:16.259Z,23.53
2019-06-27T11:34:44.864Z,23.57
2019-06-27T11:37:13.424Z,24.21
2019-06-27T11:39:42.057Z,25.68
2019-06-27T11:42:12.284Z,25.60
2019-06-27T11:44:40.915Z,25.12
2019-06-27T11:47:10.776Z,26.65
2019-06-27T11:49:39.455Z,26.61
2019-06-27T11:52:08.097Z,28.27
2019-06-27T11:54:38.974Z,30.17
2019-06-27T11:57:07.702Z,28.46
2019-06-27T11:59:36.353Z,27.57
2019-06-27T12:02:05.151Z,28.14
2019-06-27T12:04:33.760Z,27.40
2019-06-27T12:07:02.952Z,28.40
2019-06-27T12:09:31.689Z,27.62
2019-06-27T12:12:00.312Z,27.79
2019-06-27T12:14:29.480Z,28.81
2019-06-27T12:16:58.200Z,29.61
2019-06-27T12:19:26.838Z,30.94
2019-06-27T12:21:55.484Z,28.72
2019-06-27T12:24:24.122Z,30.17
2019-06-27T12:26:54.460Z,29.83
2019-06-27T12:29:23.093Z,29.93
2019-06-27T12:31:51.947Z,30.09
2019-06-27T12:34:21.194Z,31.29
2019-06-27T12:36:49.820Z,30.19
2019-06-27T12:39:18.465Z,29.81
2019-06-27T12:41:47.174Z,31.08
2019-06-27T12:44:15.832Z,30.21
2019-06-27T12:46:44.510Z,32.09
2019-06-27T12:49:13.078Z,29.79
2019-06-27T12:51:41.707Z,29.34
2019-06-27T12:54:10.494Z,29.29
2019-06-27T12:56:39.149Z,29.28
2019-06-27T12:59:07.789Z,30.43
2019-06-27T13:01:37.302Z,31.36
2019-06-27T13:04:19.104Z,33.04
2019-06-27T13:06:36.312Z,32.20
2019-06-27T13:09:05.987Z,31.99
2019-06-27T13:11:34.635Z,31.17
2019-06-27T13:14:03.204Z,30.56
2019-06-27T13:16:32.652Z,30.64
2019-06-27T13:19:01.270Z,30.82
2019-06-27T13:21:29.908Z,31.27
2019-06-27T13:23:58.541Z,32.56
2019-06-27T13:26:27.171Z,33.67
2019-06-27T13:28:55.853Z,33.93
2019-06-27T13:31:24.492Z,33.71
2019-06-27T13:33:53.130Z,33.42
2019-06-27T13:36:21.775Z,32.99
2019-06-27T13:38:50.398Z,32.94
2019-06-27T13:41:19.041Z,34.14
2019-06-27T13:43:49.315Z,33.45
2019-06-27T13:46:18.180Z,34.05
2019-06-27T13:48:46.807Z,34.27
2019-06-27T13:51:15.428Z,34.03
2019-06-27T13:53:44.114Z,33.44
2019-06-27T13:56:13.579Z,33.31
2019-06-27T13:58:42.281Z,33.20
2019-06-27T14:01:11.161Z,32.25
2019-06-27T14:03:49.319Z,32.49
2019-06-27T14:06:10.194Z,32.65
2019-06-27T14:08:39.691Z,33.05
2019-06-27T14:11:08.328Z,34.69
2019-06-27T14:13:36.980Z,33.72
2019-06-27T14:16:07.278Z,34.13
2019-06-27T14:18:35.896Z,33.72
2019-06-27T14:21:04.540Z,33.43
2019-06-27T14:23:33.106Z,33.46
2019-06-27T14:26:01.749Z,32.76
2019-06-27T14:28:30.433Z,32.62
2019-06-27T14:30:59.082Z,32.15
2019-06-27T14:33:27.712Z,32.73
2019-06-27T14:35:57.985Z,32.69
2019-06-27T14:38:27.650Z,33.42
2019-06-27T14:40:58.933Z,32.32
2019-06-27T14:43:27.644Z,32.00
2019-06-27T14:45:56.271Z,33.31
2019-06-27T14:48:24.945Z,32.74
2019-06-27T14:50:53.504Z,32.46
2019-06-27T14:53:22.159Z,31.86
2019-06-27T14:55:51.577Z,32.27
2019-06-27T14:58:20.227Z,31.98
2019-06-27T15:00:48.918Z,31.34
2019-06-27T15:03:17.574Z,32.08
2019-06-27T15:05:46.274Z,32.30
2019-06-27T15:08:16.626Z,32.62
2019-06-27T15:10:45.261Z,34.16
2019-06-27T15:13:13.920Z,33.13
2019-06-27T15:15:44.596Z,34.05
2019-06-27T15:18:16.570Z,33.94
2019-06-27T15:20:44.012Z,33.30
2019-06-27T15:23:12.651Z,33.20
2019-06-27T15:25:42.070Z,33.30
2019-06-27T15:28:10.745Z,33.07
2019-06-27T15:30:39.458Z,33.49
2019-06-27T15:33:09.171Z,33.63
2019-06-27T15:35:51.662Z,33.58
2019-06-27T15:38:09.747Z,33.16
2019-06-27T15:40:38.384Z,33.08
2019-06-27T15:43:07.040Z,32.75
2019-06-27T15:45:35.673Z,32.42
2019-06-27T15:48:04.432Z,32.86
2019-06-27T15:50:33.005Z,33.67
2019-06-27T15:53:01.707Z,35.65
2019-06-27T15:55:31.285Z,35.48
2019-06-27T15:57:59.841Z,35.18
2019-06-27T16:00:28.482Z,34.85
2019-06-27T16:02:57.117Z,35.46
2019-06-27T16:05:25.859Z,35.65
2019-06-27T16:07:54.604Z,35.99
2019-06-27T16:10:23.938Z,36.37
2019-06-27T16:12:52.571Z,36.40
2019-06-27T16:15:21.241Z,37.54
2019-06-27T16:17:49.870Z,36.98
2019-06-27T16:20:20.487Z,35.97
2019-06-27T16:22:49.120Z,36.58
2019-06-27T16:25:18.050Z,36.34
2019-06-27T16:27:46.673Z,35.84
2019-06-27T16:30:15.854Z,36.58
2019-06-27T16:32:44.499Z,37.57
2019-06-27T16:35:13.216Z,37.52
2019-06-27T16:37:42.466Z,37.24
2019-06-27T16:40:11.601Z,37.56
2019-06-27T16:42:40.248Z,38.06
2019-06-27T16:45:10.602Z,38.55
2019-06-27T16:47:39.236Z,38.09
2019-06-27T16:50:10.688Z,37.18
2019-06-27T16:52:39.343Z,37.42
2019-06-27T16:55:08.875Z,38.36
2019-06-27T16:57:38.911Z,39.33
2019-06-27T17:00:09.015Z,40.93
2019-06-27T17:02:37.707Z,40.83
2019-06-27T17:05:06.751Z,41.08
2019-06-27T17:07:35.396Z,41.54
2019-06-27T17:10:05.875Z,41.12
2019-06-27T17:12:34.510Z,41.06
2019-06-27T17:15:03.548Z,40.87
2019-06-27T17:17:32.235Z,41.06
2019-06-27T17:20:00.876Z,41.43
2019-06-27T17:22:29.510Z,41.11
2019-06-27T17:24:58.269Z,41.29
2019-06-27T17:27:26.999Z,41.02
2019-06-27T17:29:55.795Z,41.93
2019-06-27T17:32:24.378Z,41.83
2019-06-27T17:34:53.156Z,41.65
2019-06-27T17:37:22.313Z,41.84
2019-06-27T17:39:50.986Z,42.42
2019-06-27T17:42:20.268Z,42.04
2019-06-27T17:44:50.403Z,42.51
2019-06-27T17:47:19.028Z,43.23
2019-06-27T17:49:49.157Z,43.43
2019-06-27T17:52:18.083Z,44.02
2019-06-27T17:54:46.720Z,45.19
2019-06-27T17:57:15.419Z,44.23
2019-06-27T17:59:43.996Z,45.38
2019-06-27T18:02:12.614Z,45.99
2019-06-27T18:04:41.272Z,46.51
2019-06-27T18:07:14.784Z,47.06
2019-06-27T18:09:42.058Z,47.49
2019-06-27T18:12:11.224Z,47.72
2019-06-27T18:14:39.863Z,48.79
2019-06-27T18:17:09.341Z,49.24
2019-06-27T18:19:37.998Z,49.59
2019-06-27T18:22:06.624Z,50.44
2019-06-27T18:24:35.272Z,50.45
2019-06-27T18:27:03.834Z,50.81
2019-06-27T18:29:32.990Z,51.53
2019-06-27T18:32:01.699Z,51.59
2019-06-27T18:34:30.262Z,51.34
2019-06-27T18:36:59.318Z,51.60
2019-06-27T18:39:27.961Z,52.56
2019-06-27T18:41:56.678Z,52.53
2019-06-27T18:44:25.416Z,53.50
2019-06-27T18:46:54.068Z,53.53
2019-06-27T18:49:22.949Z,54.41
2019-06-27T18:51:51.620Z,54.33
2019-06-27T18:54:20.306Z,54.78
2019-06-27T18:56:49.133Z,55.48
2019-06-27T18:59:17.905Z,55.09
2019-06-27T19:01:46.540Z,56.78
2019-06-27T19:04:15.357Z,57.05
2019-06-27T19:06:44.275Z,56.15
2019-06-27T19:09:13.030Z,55.96
2019-06-27T19:11:41.657Z,56.07
2019-06-27T19:14:10.298Z,56.98
2019-06-27T19:16:38.977Z,56.38
2019-06-27T19:19:09.251Z,57.30
2019-06-27T19:21:42.661Z,58.77
2019-06-27T19:24:15.927Z,58.52
2019-06-27T19:26:45.635Z,57.86
2019-06-27T19:29:14.266Z,58.28
2019-06-27T19:31:42.976Z,58.18
2019-06-27T19:34:11.612Z,59.21
2019-06-27T19:36:40.345Z,58.98
2019-06-27T19:39:08.991Z,59.89
2019-06-27T19:41:37.688Z,58.46
2019-06-27T19:44:06.512Z,58.18
2019-06-27T19:46:35.110Z,58.40
2019-06-27T19:49:03.850Z,58.05
2019-06-27T19:51:34.034Z,58.41
2019-06-27T19:54:02.606Z,58.92
2019-06-27T19:56:31.256Z,59.25
2019-06-27T19:59:00.675Z,59.15
2019-06-27T20:01:29.308Z,59.51
2019-06-27T20:03:57.966Z,59.51
2019-06-27T20:06:26.601Z,59.58
2019-06-27T20:08:55.233Z,59.84
2019-06-27T20:11:23.920Z,60.07
2019-06-27T20:13:52.559Z,60.26
2019-06-27T20:16:22.143Z,60.50
2019-06-27T20:18:51.090Z,60.60
2019-06-27T20:21:19.727Z,60.74
2019-06-27T20:23:48.374Z,61.18
2019-06-27T20:26:17.032Z,61.12
2019-06-27T20:28:45.654Z,61.36
2019-06-27T20:31:15.217Z,61.58
2019-06-27T20:33:43.796Z,61.75
2019-06-27T20:36:12.438Z,61.96
2019-06-27T20:38:41.143Z,62.14
2019-06-27T20:41:09.780Z,62.47
2019-06-27T20:43:38.409Z,62.47
2019-06-27T20:46:07.047Z,62.51
2019-06-27T20:48:35.683Z,62.68
2019-06-27T20:51:04.350Z,63.08
2019-06-27T20:53:32.986Z,63.20
2019-06-27T20:56:01.620Z,63.68
2019-06-27T20:58:31.963Z,63.77
2019-06-27T21:01:00.604Z,63.62
2019-06-27T21:03:29.257Z,63.80
2019-06-27T21:05:57.882Z,63.99
2019-06-27T21:08:26.446Z,64.51
2019-06-27T21:10:55.999Z,63.97
2019-06-27T21:13:24.643Z,64.88
2019-06-27T21:15:53.272Z,64.56
2019-06-27T21:18:22.037Z,64.96
2019-06-27T21:20:50.668Z,64.74
2019-06-27T21:23:19.305Z,64.50
2019-06-27T21:25:47.917Z,64.78
2019-06-27T21:28:16.551Z,65.61
2019-06-27T21:30:46.134Z,65.72
2019-06-27T21:33:14.850Z,65.99
2019-06-27T21:35:43.549Z,64.67
2019-06-27T21:38:12.160Z,64.23
2019-06-27T21:40:40.795Z,64.12
2019-06-27T21:43:09.443Z,64.06
2019-06-27T21:45:38.088Z,64.36
2019-06-27T21:48:06.737Z,64.35
2019-06-27T21:50:36.915Z,64.29
2019-06-27T21:53:05.550Z,64.51
2019-06-27T21:55:34.181Z,64.46
2019-06-27T21:58:02.871Z,64.56
2019-06-27T22:00:33.147Z,64.76
2019-06-27T22:03:01.807Z,64.95
2019-06-27T22:05:30.566Z,65.13
2019-06-27T22:07:59.205Z,66.02
2019-06-27T22:10:27.887Z,65.91
2019-06-27T22:12:56.582Z,65.89
2019-06-27T22:15:25.350Z,65.79
2019-06-27T22:17:54.301Z,66.39
2019-06-27T22:20:23.830Z,66.39
2019-06-27T22:22:52.477Z,66.73
2019-06-27T22:25:21.118Z,66.56
2019-06-27T22:27:49.749Z,67.18
2019-06-27T22:30:19.605Z,67.39
2019-06-27T22:32:48.255Z,67.54
2019-06-27T22:35:17.503Z,67.32
2019-06-27T22:38:04.280Z,67.49
2019-06-27T22:40:50.713Z,67.82
2019-06-27T22:43:37.334Z,68.29
2019-06-27T22:46:24.006Z,68.67
2019-06-27T22:48:52.886Z,68.85
2019-06-27T22:51:40.318Z,69.13
2019-06-27T22:54:13.249Z,69.43
2019-06-27T22:56:41.890Z,69.46
2019-06-27T22:59:10.542Z,69.89
2019-06-27T23:32:20.018Z,69.18
2019-06-27T23:34:48.648Z,68.83
2019-06-27T23:37:17.307Z,68.29
2019-06-27T23:39:45.993Z,68.47
2019-06-27T23:42:14.553Z,68.47
2019-06-27T23:44:43.187Z,68.60
2019-06-27T23:47:11.827Z,68.84
2019-06-27T23:49:40.533Z,68.77
2019-06-27T23:52:09.869Z,68.87
2019-06-27T23:54:38.440Z,69.10
2019-06-27T23:57:07.010Z,68.90
2019-06-27T23:59:35.692Z,69.08
